createdAt,value
2024-03-15T00:01:40.407Z,75.41
2024-03-15T00:04:07.628Z,75.33
2024-03-15T00:06:35.519Z,75.22
2024-03-15T00:09:02.846Z,75.35
2024-03-15T00:11:31.852Z,75.31
2024-03-15T00:13:58.843Z,75.21
2024-03-15T00:16:27.026Z,75.39
2024-03-15T00:18:55.232Z,75.58
2024-03-15T00:21:25.363Z,75.64
2024-03-15T00:23:55.779Z,75.76
2024-03-15T00:26:23.779Z,75.92
2024-03-15T00:28:50.820Z,75.91
2024-03-15T00:31:17.793Z,76.08
2024-03-15T00:33:44.767Z,76.18
2024-03-15T00:36:13.420Z,76.35
2024-03-15T00:38:41.544Z,76.30
2024-03-15T00:41:08.494Z,76.34
2024-03-15T00:43:37.588Z,76.48
2024-03-15T00:46:04.775Z,76.51
2024-03-15T00:48:31.860Z,76.37
2024-03-15T00:50:58.823Z,76.41
2024-03-15T00:53:25.715Z,76.59
2024-03-15T00:55:52.866Z,76.51
2024-03-15T00:58:20.346Z,76.53
2024-03-15T01:00:50.933Z,76.59
2024-03-15T01:03:20.119Z,76.58
2024-03-15T01:05:47.160Z,76.41
2024-03-15T01:08:14.570Z,76.39
2024-03-15T01:10:43.214Z,76.08
2024-03-15T01:13:10.325Z,76.30
2024-03-15T01:15:37.417Z,76.47
2024-03-15T01:18:04.891Z,76.44
2024-03-15T01:20:34.095Z,76.59
2024-03-15T01:23:01.158Z,76.79
2024-03-15T01:25:28.243Z,76.64
2024-03-15T01:27:59.689Z,76.77
2024-03-15T01:30:26.658Z,76.72
2024-03-15T01:32:56.822Z,76.83
2024-03-15T01:35:33.644Z,76.73
2024-03-15T01:38:04.729Z,76.78
2024-03-15T01:40:32.699Z,76.86
2024-03-15T01:42:59.607Z,77.06
2024-03-15T01:45:26.645Z,77.04
2024-03-15T01:47:54.284Z,77.37
2024-03-15T01:50:24.474Z,77.13
2024-03-15T01:52:53.744Z,76.84
2024-03-15T01:55:28.122Z,77.08
2024-03-15T01:57:55.469Z,77.17
2024-03-15T02:00:22.487Z,76.98
2024-03-15T02:02:49.869Z,76.89
2024-03-15T02:05:17.914Z,76.77
2024-03-15T02:07:45.221Z,76.73
2024-03-15T02:10:21.299Z,76.53
2024-03-15T02:15:28.936Z,76.48
2024-03-15T02:17:56.419Z,76.63
2024-03-15T02:20:24.373Z,76.96
2024-03-15T02:22:51.285Z,76.90
2024-03-15T02:25:19.678Z,77.57
2024-03-15T02:27:49.395Z,77.67
2024-03-15T02:30:17.988Z,78.18
2024-03-15T02:32:45.239Z,77.98
2024-03-15T02:35:20.066Z,78.08
2024-03-15T02:37:53.952Z,77.85
2024-03-15T02:40:21.172Z,77.55
2024-03-15T02:42:48.784Z,77.47
2024-03-15T02:45:16.394Z,77.15
2024-03-15T02:47:45.146Z,77.21
2024-03-15T02:50:12.165Z,77.09
2024-03-15T02:52:39.065Z,77.04
2024-03-15T02:55:06.662Z,76.95
2024-03-15T02:57:33.726Z,76.84
2024-03-15T03:00:00.745Z,76.50
2024-03-15T03:02:27.743Z,76.63
2024-03-15T03:04:54.701Z,76.76
2024-03-15T03:07:22.926Z,76.68
2024-03-15T03:09:50.033Z,76.57
2024-03-15T03:12:17.125Z,76.83
2024-03-15T03:14:44.301Z,76.78
2024-03-15T03:17:12.472Z,78.00
2024-03-15T03:19:39.504Z,80.57
2024-03-15T03:22:07.569Z,91.88
2024-03-15T03:24:35.740Z,93.67
2024-03-15T03:27:02.748Z,93.69
2024-03-15T03:29:30.352Z,94.33
2024-03-15T03:31:59.646Z,93.52
2024-03-15T03:34:26.662Z,92.23
2024-03-15T03:36:59.675Z,91.58
2024-03-15T03:39:27.657Z,90.05
2024-03-15T03:41:56.190Z,90.28
2024-03-15T03:44:23.193Z,90.22
2024-03-15T03:46:50.160Z,90.29
2024-03-15T03:49:17.236Z,90.01
2024-03-15T03:51:44.264Z,90.34
2024-03-15T03:54:13.291Z,90.14
2024-03-15T03:56:40.335Z,90.07
2024-03-15T03:59:07.370Z,89.71
2024-03-15T04:01:35.489Z,89.80
2024-03-15T04:04:07.369Z,89.67
2024-03-15T04:06:34.510Z,89.49
2024-03-15T04:09:02.134Z,89.26
2024-03-15T04:11:29.630Z,89.25
2024-03-15T04:13:56.598Z,88.96
2024-03-15T04:16:23.667Z,88.87
2024-03-15T04:18:51.396Z,88.95
2024-03-15T04:21:19.482Z,88.94
2024-03-15T04:23:47.921Z,89.14
2024-03-15T04:26:14.865Z,89.01
2024-03-15T04:28:43.253Z,89.03
2024-03-15T04:31:10.246Z,88.85
2024-03-15T04:33:37.366Z,88.60
2024-03-15T04:36:06.379Z,88.25
2024-03-15T04:38:34.100Z,88.74
2024-03-15T04:41:11.278Z,89.05
2024-03-15T04:43:38.656Z,89.15
2024-03-15T04:46:06.225Z,89.07
2024-03-15T04:48:33.709Z,89.00
2024-03-15T04:51:01.830Z,88.89
2024-03-15T04:53:30.165Z,88.84
2024-03-15T04:55:57.158Z,88.58
2024-03-15T04:58:32.056Z,88.64
2024-03-15T05:00:59.169Z,88.50
2024-03-15T05:03:26.238Z,88.26
2024-03-15T05:05:53.149Z,87.93
2024-03-15T05:08:20.182Z,88.03
2024-03-15T05:10:51.261Z,87.73
2024-03-15T05:13:18.325Z,87.54
2024-03-15T05:15:45.253Z,87.31
2024-03-15T05:18:16.017Z,87.28
2024-03-15T05:20:43.228Z,87.42
2024-03-15T05:23:10.298Z,87.36
2024-03-15T05:25:37.783Z,88.58
2024-03-15T05:28:06.910Z,89.12
2024-03-15T05:30:33.856Z,89.10
2024-03-15T05:33:01.239Z,89.45
2024-03-15T05:35:30.360Z,90.11
2024-03-15T05:50:17.980Z,91.34
2024-03-15T05:52:45.282Z,91.57
2024-03-15T05:55:13.030Z,91.67
2024-03-15T05:57:40.915Z,91.70
2024-03-15T06:00:17.115Z,91.61
2024-03-15T06:02:45.447Z,91.46
2024-03-15T06:05:14.367Z,91.46
2024-03-15T06:07:42.860Z,91.66
2024-03-15T06:10:09.844Z,91.55
2024-03-15T06:12:36.952Z,91.59
2024-03-15T06:15:05.345Z,91.62
2024-03-15T06:17:33.050Z,91.78
2024-03-15T06:20:01.217Z,91.73
2024-03-15T06:22:28.173Z,91.94
2024-03-15T06:24:57.508Z,91.93
2024-03-15T06:27:24.771Z,91.72
2024-03-15T06:29:54.023Z,91.69
2024-03-15T06:32:28.063Z,91.77
2024-03-15T06:34:56.653Z,91.71
2024-03-15T06:37:25.005Z,91.47
2024-03-15T06:39:57.990Z,91.15
2024-03-15T06:42:26.018Z,91.21
2024-03-15T06:45:05.265Z,90.99
2024-03-15T06:47:34.640Z,90.91
2024-03-15T06:50:08.109Z,90.52
2024-03-15T06:52:37.880Z,90.52
2024-03-15T06:55:08.600Z,89.84
2024-03-15T06:57:54.046Z,89.69
2024-03-15T07:00:55.688Z,89.32
2024-03-15T07:03:26.081Z,88.92
2024-03-15T07:05:53.075Z,88.91
2024-03-15T07:08:38.079Z,88.79
2024-03-15T07:11:05.764Z,88.72
2024-03-15T07:13:48.804Z,88.24
2024-03-15T07:16:18.026Z,87.80
2024-03-15T07:18:50.378Z,87.60
2024-03-15T07:21:34.047Z,87.69
2024-03-15T07:24:07.668Z,86.92
2024-03-15T07:26:50.110Z,86.31
2024-03-15T07:29:25.438Z,86.32
2024-03-15T07:31:56.950Z,86.04
2024-03-15T07:34:23.985Z,85.93
2024-03-15T07:36:51.065Z,86.06
2024-03-15T07:39:18.103Z,85.81
2024-03-15T07:41:45.306Z,85.72
2024-03-15T07:44:16.398Z,85.40
2024-03-15T07:46:43.639Z,85.05
2024-03-15T07:49:30.886Z,85.37
2024-03-15T07:52:02.452Z,85.51
2024-03-15T07:54:35.418Z,85.37
2024-03-15T07:57:17.402Z,85.30
2024-03-15T07:59:55.932Z,85.00
2024-03-15T08:02:26.210Z,84.45
2024-03-15T08:04:58.675Z,84.48
2024-03-15T08:07:30.730Z,83.88
2024-03-15T08:09:57.849Z,83.47
2024-03-15T08:12:25.937Z,82.15
2024-03-15T08:26:16.559Z,81.70
2024-03-15T08:55:43.863Z,81.34
2024-03-15T08:58:13.044Z,81.17
2024-03-15T09:00:40.823Z,81.82
2024-03-15T09:03:10.506Z,81.02
2024-03-15T09:05:40.038Z,81.28
2024-03-15T09:08:12.419Z,79.20
2024-03-15T09:10:41.387Z,79.95
2024-03-15T09:13:08.957Z,79.98
2024-03-15T09:15:36.792Z,79.40
2024-03-15T09:18:10.272Z,78.72
2024-03-15T09:20:44.124Z,78.42
2024-03-15T09:23:14.042Z,78.50
2024-03-15T09:25:41.071Z,78.01
2024-03-15T09:28:11.195Z,77.50
2024-03-15T09:30:50.973Z,76.78
2024-03-15T09:33:29.393Z,76.33
2024-03-15T09:36:00.493Z,75.10
2024-03-15T09:38:27.536Z,75.37
2024-03-15T09:41:00.147Z,74.82
2024-03-15T09:43:31.878Z,75.82
2024-03-15T09:45:59.479Z,75.05
2024-03-15T09:48:30.493Z,74.86
2024-03-15T09:51:05.427Z,73.93
2024-03-15T09:53:32.674Z,73.79
2024-03-15T09:56:02.554Z,73.90
2024-03-15T09:58:29.965Z,74.13
2024-03-15T10:00:59.908Z,74.80
2024-03-15T10:03:27.124Z,74.75
2024-03-15T10:05:55.304Z,75.03
2024-03-15T10:11:04.118Z,74.52
2024-03-15T10:13:32.093Z,74.68
2024-03-15T10:16:01.712Z,73.39
2024-03-15T10:18:36.033Z,73.60
2024-03-15T10:21:03.070Z,73.40
2024-03-15T10:23:30.327Z,74.04
2024-03-15T10:25:57.727Z,76.32
2024-03-15T10:28:24.974Z,80.70
2024-03-15T10:30:51.989Z,82.32
2024-03-15T10:33:19.196Z,82.63
2024-03-15T10:35:46.496Z,81.87
2024-03-15T10:38:16.429Z,80.64
2024-03-15T10:40:44.605Z,79.67
2024-03-15T10:43:14.554Z,79.01
2024-03-15T10:45:42.970Z,77.06
2024-03-15T10:48:11.540Z,76.09
2024-03-15T10:50:47.403Z,75.00
2024-03-15T10:53:17.464Z,75.34
2024-03-15T10:55:44.407Z,75.07
2024-03-15T10:58:12.978Z,73.62
2024-03-15T11:00:40.814Z,73.12
2024-03-15T11:03:27.309Z,72.75
2024-03-15T11:05:56.542Z,73.44
2024-03-15T11:08:23.982Z,73.65
2024-03-15T11:11:04.669Z,72.34
2024-03-15T11:13:38.364Z,73.00
2024-03-15T11:16:26.319Z,73.61
2024-03-15T11:18:53.706Z,72.48
2024-03-15T11:21:22.922Z,72.54
2024-03-15T11:23:51.148Z,70.47
2024-03-15T11:26:22.652Z,69.58
2024-03-15T11:29:00.038Z,70.00
2024-03-15T11:31:30.566Z,68.58
2024-03-15T11:34:01.147Z,68.15
2024-03-15T11:36:30.428Z,68.37
2024-03-15T11:38:58.233Z,68.75
2024-03-15T11:41:25.554Z,68.82
2024-03-15T11:44:05.824Z,68.54
2024-03-15T11:46:34.019Z,66.47
2024-03-15T11:49:07.208Z,67.86
2024-03-15T11:51:34.255Z,67.38
2024-03-15T11:54:01.427Z,66.86
2024-03-15T11:56:30.287Z,66.68
2024-03-15T11:59:04.269Z,67.43
2024-03-15T12:01:32.179Z,68.74
2024-03-15T12:04:00.960Z,69.08
2024-03-15T12:06:28.027Z,69.09
2024-03-15T12:09:04.495Z,70.14
2024-03-15T12:11:38.193Z,70.07
2024-03-15T12:14:08.735Z,68.76
2024-03-15T12:16:43.178Z,68.51
2024-03-15T12:19:16.765Z,68.10
2024-03-15T12:22:11.273Z,67.86
2024-03-15T12:24:38.614Z,64.06
2024-03-15T12:27:11.744Z,65.39
2024-03-15T12:29:46.063Z,65.80
2024-03-15T12:32:14.035Z,66.68
2024-03-15T12:34:41.479Z,66.93
2024-03-15T12:37:10.032Z,66.34
2024-03-15T12:39:41.209Z,65.80
2024-03-15T12:42:10.026Z,66.53
2024-03-15T12:44:37.264Z,66.72
2024-03-15T12:47:04.359Z,65.78
2024-03-15T12:49:33.795Z,66.05
2024-03-15T12:52:01.336Z,65.86
2024-03-15T12:54:28.441Z,65.51
2024-03-15T12:57:06.904Z,67.20
2024-03-15T12:59:33.963Z,65.32
2024-03-15T13:02:01.969Z,65.09
2024-03-15T13:04:29.021Z,61.72
2024-03-15T13:06:56.446Z,63.68
2024-03-15T13:09:24.726Z,65.20
2024-03-15T13:11:51.696Z,66.36
2024-03-15T13:14:23.032Z,70.54
2024-03-15T13:16:49.992Z,73.61
2024-03-15T13:19:16.959Z,71.34
2024-03-15T13:21:44.512Z,69.11
2024-03-15T13:24:12.640Z,66.26
2024-03-15T13:26:39.546Z,61.23
2024-03-15T13:29:13.834Z,61.35
2024-03-15T13:31:40.813Z,61.80
2024-03-15T13:34:36.676Z,59.68
2024-03-15T13:37:03.815Z,60.05
2024-03-15T13:39:32.554Z,59.70
2024-03-15T13:41:59.639Z,56.01
2024-03-15T13:44:40.816Z,54.96
2024-03-15T13:48:22.408Z,57.60
2024-03-15T13:51:03.899Z,62.17
2024-03-15T13:53:34.064Z,64.03
2024-03-15T13:56:01.185Z,65.34
2024-03-15T13:59:32.534Z,66.64
2024-03-15T14:02:39.778Z,74.43
2024-03-15T14:05:17.916Z,81.70
2024-03-15T14:07:51.857Z,84.59
2024-03-15T14:10:21.619Z,84.38
2024-03-15T14:12:51.112Z,86.54
2024-03-15T14:15:21.122Z,81.00
2024-03-15T14:17:53.952Z,82.98
2024-03-15T14:20:26.012Z,82.00
2024-03-15T14:22:59.207Z,80.83
2024-03-15T14:25:41.305Z,78.28
2024-03-15T14:28:16.232Z,74.46
2024-03-15T14:30:49.616Z,72.39
2024-03-15T14:33:28.561Z,70.93
2024-03-15T14:35:59.440Z,71.81
2024-03-15T14:38:34.187Z,67.95
2024-03-15T14:41:02.558Z,65.82
2024-03-15T14:43:30.871Z,70.21
2024-03-15T14:46:23.712Z,71.41
2024-03-15T14:48:58.547Z,72.70
2024-03-15T14:51:52.122Z,72.69
2024-03-15T14:54:48.184Z,70.67
2024-03-15T15:03:24.267Z,66.57
2024-03-15T15:05:54.107Z,65.53
2024-03-15T15:08:25.592Z,64.81
2024-03-15T15:10:54.404Z,66.26
2024-03-15T15:13:46.891Z,67.19
2024-03-15T15:16:19.716Z,67.01
2024-03-15T15:18:52.782Z,66.51
2024-03-15T15:21:20.226Z,67.08
2024-03-15T15:23:47.350Z,67.54
2024-03-15T15:26:14.575Z,69.01
2024-03-15T15:28:48.741Z,68.48
2024-03-15T15:31:33.740Z,68.95
2024-03-15T15:34:03.573Z,69.68
2024-03-15T15:37:03.740Z,68.71
2024-03-15T15:39:38.670Z,67.92
2024-03-15T15:42:39.882Z,67.08
2024-03-15T15:45:51.326Z,67.60
2024-03-15T15:52:25.892Z,69.49
2024-03-15T15:54:53.748Z,70.49
2024-03-15T15:57:23.384Z,70.04
2024-03-15T15:59:54.971Z,70.60
2024-03-15T16:02:45.494Z,69.06
2024-03-15T16:05:15.119Z,70.68
2024-03-15T16:07:45.733Z,70.27
2024-03-15T16:10:13.496Z,70.17
2024-03-15T16:12:46.282Z,69.94
2024-03-15T16:15:13.467Z,70.30
2024-03-15T16:17:40.618Z,70.51
2024-03-15T16:20:09.846Z,70.50
2024-03-15T16:22:37.587Z,70.37
2024-03-15T16:25:07.449Z,70.44
2024-03-15T16:27:41.588Z,70.49
2024-03-15T16:30:09.275Z,70.21
2024-03-15T16:32:36.380Z,71.08
2024-03-15T16:35:08.216Z,71.13
2024-03-15T16:37:35.826Z,71.19
2024-03-15T16:40:02.923Z,71.77
2024-03-15T16:42:31.119Z,71.50
2024-03-15T16:44:59.358Z,71.06
2024-03-15T16:47:26.342Z,71.28
2024-03-15T16:49:53.343Z,70.75
2024-03-15T16:52:20.573Z,70.98
2024-03-15T16:54:47.784Z,71.48
2024-03-15T16:57:27.572Z,71.31
2024-03-15T17:00:00.822Z,71.09
2024-03-15T17:20:31.281Z,72.17
2024-03-15T17:22:58.287Z,72.76
2024-03-15T17:25:25.319Z,72.22
2024-03-15T17:27:53.418Z,72.69
2024-03-15T17:30:21.138Z,72.56
2024-03-15T17:32:48.232Z,72.73
2024-03-15T17:35:20.613Z,73.00
2024-03-15T17:37:47.631Z,73.01
2024-03-15T17:40:14.665Z,73.02
2024-03-15T17:42:41.659Z,73.14
2024-03-15T17:45:13.055Z,73.40
2024-03-15T17:47:40.229Z,73.80
2024-03-15T17:50:10.516Z,73.73
2024-03-15T17:52:45.302Z,73.07
2024-03-15T17:55:12.429Z,72.83
2024-03-15T17:57:39.617Z,71.86
2024-03-15T18:00:13.441Z,71.98
2024-03-15T18:02:45.379Z,71.91
2024-03-15T18:05:15.812Z,72.07
2024-03-15T18:07:43.042Z,72.13
2024-03-15T18:10:13.927Z,72.29
2024-03-15T18:12:41.277Z,72.47
2024-03-15T18:15:08.673Z,72.66
2024-03-15T18:17:38.988Z,73.02
2024-03-15T18:20:13.747Z,73.18
2024-03-15T18:22:41.320Z,73.37
2024-03-15T18:25:11.868Z,73.51
2024-03-15T18:27:39.254Z,73.63
2024-03-15T18:30:07.469Z,73.66
2024-03-15T18:32:40.295Z,73.67
2024-03-15T18:35:07.946Z,73.31
2024-03-15T18:37:34.920Z,73.19
2024-03-15T18:40:02.155Z,72.85
2024-03-15T18:42:29.320Z,72.87
2024-03-15T18:44:58.266Z,73.02
2024-03-15T18:47:25.318Z,72.77
2024-03-15T18:49:53.415Z,72.80
2024-03-15T18:52:21.395Z,72.46
2024-03-15T18:54:50.521Z,72.76
2024-03-15T18:57:18.317Z,72.80
2024-03-15T18:59:47.886Z,72.82
2024-03-15T19:02:20.524Z,72.94
2024-03-15T19:04:52.625Z,72.94
2024-03-15T19:07:25.918Z,72.82
2024-03-15T19:09:53.314Z,73.06
2024-03-15T19:12:22.698Z,73.10
2024-03-15T19:14:52.995Z,73.24
2024-03-15T19:17:20.069Z,73.41
2024-03-15T19:19:48.515Z,73.55
2024-03-15T19:22:18.178Z,73.83
2024-03-15T19:24:45.673Z,73.89
2024-03-15T19:27:13.124Z,74.01
2024-03-15T19:29:40.128Z,74.28
2024-03-15T19:32:10.073Z,74.43
2024-03-15T19:34:39.227Z,74.95
2024-03-15T19:37:07.279Z,74.95
2024-03-15T19:39:36.363Z,75.37
2024-03-15T19:42:03.401Z,75.59
2024-03-15T19:44:30.360Z,75.70
2024-03-15T19:46:57.685Z,76.10
2024-03-15T19:49:24.611Z,76.43
2024-03-15T19:51:52.819Z,76.55
2024-03-15T19:54:20.619Z,76.52
2024-03-15T19:56:48.291Z,76.77
2024-03-15T19:59:16.439Z,76.82
2024-03-15T20:01:44.641Z,76.79
2024-03-15T20:04:12.501Z,77.04
2024-03-15T20:06:42.202Z,76.99
2024-03-15T20:09:09.319Z,77.09
2024-03-15T20:11:38.409Z,77.23
2024-03-15T20:14:07.146Z,77.10
2024-03-15T20:16:34.544Z,77.37
2024-03-15T20:19:01.820Z,77.96
2024-03-15T20:21:28.881Z,78.05
2024-03-15T20:23:59.696Z,78.19
2024-03-15T20:26:30.388Z,78.51
2024-03-15T20:28:57.437Z,78.51
2024-03-15T20:31:24.398Z,78.43
2024-03-15T20:33:51.485Z,78.62
2024-03-15T20:36:18.478Z,78.69
2024-03-15T20:38:45.513Z,78.72
2024-03-15T20:41:12.435Z,78.76
2024-03-15T20:43:48.064Z,78.86
2024-03-15T20:46:14.960Z,78.75
2024-03-15T20:48:42.386Z,78.68
2024-03-15T20:51:11.374Z,78.35
2024-03-15T20:53:40.009Z,77.65
2024-03-15T20:56:08.852Z,77.48
2024-03-15T20:58:38.399Z,77.10
2024-03-15T21:01:08.143Z,77.00
2024-03-15T21:03:38.632Z,77.04
2024-03-15T21:06:06.629Z,77.12
2024-03-15T21:08:35.965Z,77.22
2024-03-15T21:11:02.989Z,77.53
2024-03-15T21:13:30.114Z,77.69
2024-03-15T21:15:57.316Z,77.84
2024-03-15T21:18:26.532Z,78.07
2024-03-15T21:21:00.305Z,77.81
2024-03-15T21:23:27.822Z,77.86
2024-03-15T21:25:57.066Z,77.75
2024-03-15T21:28:27.032Z,77.57
2024-03-15T21:30:57.737Z,77.50
2024-03-15T21:33:25.682Z,77.65
2024-03-15T21:35:53.188Z,78.08
2024-03-15T21:38:21.603Z,78.21
2024-03-15T21:40:55.942Z,78.20
2024-03-15T21:43:27.366Z,78.11
2024-03-15T21:45:58.098Z,78.08
2024-03-15T21:48:25.154Z,78.12
2024-03-15T21:50:52.186Z,78.18
2024-03-15T21:53:19.454Z,78.06
2024-03-15T21:55:54.866Z,78.21
2024-03-15T21:58:22.694Z,78.42
2024-03-15T22:00:50.336Z,78.08
2024-03-15T22:03:19.914Z,78.13
2024-03-15T22:05:48.023Z,78.15
2024-03-15T22:08:15.575Z,78.45
2024-03-15T22:10:42.512Z,78.54
2024-03-15T22:13:09.561Z,78.34
2024-03-15T22:15:36.790Z,78.45
2024-03-15T22:18:04.894Z,78.51
2024-03-15T22:20:31.908Z,78.59
2024-03-15T22:23:01.319Z,78.61
2024-03-15T22:25:30.288Z,78.83
2024-03-15T22:27:59.295Z,78.88
2024-03-15T22:30:27.480Z,78.93
2024-03-15T22:33:00.604Z,78.63
2024-03-15T22:35:28.423Z,78.76
2024-03-15T22:37:55.863Z,78.97
2024-03-15T22:40:24.240Z,78.76
2024-03-15T22:42:51.223Z,78.97
2024-03-15T22:45:19.254Z,79.05
2024-03-15T22:47:46.230Z,78.92
2024-03-15T22:50:13.487Z,79.11
2024-03-15T22:52:44.813Z,78.82
2024-03-15T22:55:12.411Z,78.85
2024-03-15T22:57:39.719Z,78.62
2024-03-15T23:00:17.905Z,78.65
2024-03-15T23:02:45.062Z,78.49
2024-03-15T23:05:12.986Z,78.39
2024-03-15T23:07:40.037Z,78.33
2024-03-15T23:10:09.167Z,78.27
2024-03-15T23:12:36.260Z,77.90
2024-03-15T23:15:06.756Z,78.02
2024-03-15T23:17:34.701Z,77.85
2024-03-15T23:20:01.867Z,78.02
2024-03-15T23:22:29.053Z,77.66
2024-03-15T23:24:56.276Z,77.79
2024-03-15T23:27:25.586Z,77.64
2024-03-15T23:29:54.853Z,77.73
2024-03-15T23:32:21.816Z,77.53
2024-03-15T23:34:49.461Z,77.83
2024-03-15T23:37:16.485Z,77.90
2024-03-15T23:39:48.599Z,78.09
2024-03-15T23:42:15.555Z,78.25
2024-03-15T23:44:42.442Z,78.40
2024-03-15T23:47:12.298Z,78.39
2024-03-15T23:49:44.314Z,78.57
2024-03-15T23:52:11.372Z,79.18
2024-03-15T23:54:38.802Z,79.37
2024-03-15T23:57:06.033Z,79.49
2024-03-15T23:59:33.520Z,79.93
